Time;durP1;ratioP1;P1;durP2;ratioP2;P2;SDS_P1;SDS_P2;PMS_P1;PMS_P2;Temp;Humidity;BMP_temperature;BMP_pressure;BME280_temperature;BME280_humidity;BME280_pressure;Samples;Min_cycle;Max_cycle;Signal;HPM_P1;HPM_P2
2021/10/05 14:56:46;;;;;;;1.40;1.13;;;;;;;;;;5114972;27;20681;-74
2021/10/05 14:59:12;;;;;;;2.70;1.63;;;;;;;;;;5082288;28;21239;-73
2021/10/05 15:01:38;;;;;;;2.00;1.47;;;;;;;;;;5088309;28;20406;-75
2021/10/05 15:04:04;;;;;;;2.13;1.30;;;;;;;;;;5090098;28;20452;-77
2021/10/05 15:06:34;;;;;;;2.20;1.30;;;;;;;;;;5089605;28;20490;-73
2021/10/05 15:09:00;;;;;;;2.00;1.30;;;;;;;;;;5089956;28;20402;-75
2021/10/05 15:11:26;;;;;;;3.13;1.50;;;;;;;;;;5090050;28;20456;-75
2021/10/05 15:13:53;;;;;;;1.97;1.60;;;;;;;;;;5089497;28;20450;-73
2021/10/05 15:16:19;;;;;;;3.20;1.93;;;;;;;;;;5089685;28;20465;-75
2021/10/05 15:18:45;;;;;;;3.20;1.83;;;;;;;;;;5089791;28;20381;-74
2021/10/05 15:21:11;;;;;;;3.10;1.70;;;;;;;;;;5090025;28;20410;-74
2021/10/05 15:23:37;;;;;;;2.33;1.50;;;;;;;;;;5089281;28;20444;-75
2021/10/05 15:26:04;;;;;;;2.30;1.47;;;;;;;;;;5089489;28;20411;-77
2021/10/05 15:28:29;;;;;;;3.93;1.30;;;;;;;;;;5089467;28;20389;-74
2021/10/05 15:30:56;;;;;;;2.03;1.30;;;;;;;;;;5089754;28;20425;-76
2021/10/05 15:33:22;;;;;;;1.60;1.47;;;;;;;;;;5089788;28;20475;-74
2021/10/05 15:35:51;;;;;;;1.93;1.33;;;;;;;;;;5088251;28;20523;-76
2021/10/05 15:38:17;;;;;;;3.20;1.80;;;;;;;;;;5089835;28;20425;-75
2021/10/05 15:40:46;;;;;;;2.33;1.33;;;;;;;;;;5088455;28;20393;-77
2021/10/05 15:43:12;;;;;;;1.40;1.30;;;;;;;;;;5089785;28;20414;-73
2021/10/05 15:45:38;;;;;;;2.17;1.40;;;;;;;;;;5089293;28;20434;-75
2021/10/05 15:48:05;;;;;;;3.53;2.17;;;;;;;;;;5088552;28;20559;-73
2021/10/05 15:50:36;;;;;;;2.37;1.10;;;;;;;;;;5089833;28;20418;-78
2021/10/05 15:53:06;;;;;;;1.70;1.20;;;;;;;;;;5089778;28;20433;-76
2021/10/05 15:55:32;;;;;;;1.37;1.10;;;;;;;;;;5089060;28;20445;-75
2021/10/05 15:57:58;;;;;;;4.50;1.97;;;;;;;;;;5088367;28;20502;-77
2021/10/05 16:00:25;;;;;;;1.57;0.90;;;;;;;;;;5089518;28;20493;-77
2021/10/05 16:02:52;;;;;;;0.87;0.70;;;;;;;;;;5088045;28;20419;-77
2021/10/05 16:05:18;;;;;;;0.80;0.63;;;;;;;;;;5089001;28;20792;-76
2021/10/05 16:07:44;;;;;;;1.47;0.60;;;;;;;;;;5077952;28;20397;-79
2021/10/05 16:10:13;;;;;;;0.97;0.77;;;;;;;;;;5075871;28;20445;-77
2021/10/05 16:12:39;;;;;;;2.87;1.07;;;;;;;;;;5074544;28;20982;-77
2021/10/05 16:15:09;;;;;;;2.70;1.10;;;;;;;;;;5075206;28;20557;-77
2021/10/05 16:17:35;;;;;;;1.03;0.70;;;;;;;;;;5075646;28;20422;-77
2021/10/05 16:20:06;;;;;;;2.00;0.70;;;;;;;;;;5075555;28;20414;-76
2021/10/05 16:22:32;;;;;;;1.97;0.90;;;;;;;;;;5075611;28;20415;-76
2021/10/05 16:24:58;;;;;;;2.50;0.80;;;;;;;;;;5074977;28;20450;-76
2021/10/05 16:27:24;;;;;;;6.80;1.53;;;;;;;;;;5075385;28;20419;-75
2021/10/05 16:29:50;;;;;;;3.77;1.47;;;;;;;;;;5075379;28;20918;-77
2021/10/05 16:32:16;;;;;;;5.20;1.73;;;;;;;;;;5075354;28;20393;-77
2021/10/05 16:34:43;;;;;;;5.13;1.00;;;;;;;;;;5056954;28;20555;-77
2021/10/05 16:37:09;;;;;;;3.63;1.20;;;;;;;;;;5075057;28;20411;-75
2021/10/05 16:39:35;;;;;;;6.30;1.67;;;;;;;;;;5075116;28;20399;-78
2021/10/05 16:42:01;;;;;;;4.63;1.23;;;;;;;;;;5075243;28;20887;-76
2021/10/05 16:44:27;;;;;;;7.03;1.77;;;;;;;;;;5073666;28;20927;-75
2021/10/05 16:46:54;;;;;;;2.10;1.53;;;;;;;;;;5074912;28;20803;-77
2021/10/05 16:49:20;;;;;;;5.27;1.27;;;;;;;;;;5074992;28;20411;-76
2021/10/05 16:51:46;;;;;;;6.53;1.30;;;;;;;;;;5073860;28;20407;-75
2021/10/05 16:54:12;;;;;;;4.27;1.13;;;;;;;;;;5074651;28;20427;-76
2021/10/05 16:56:38;;;;;;;4.60;1.10;;;;;;;;;;5073670;28;20485;-75
2021/10/05 16:59:04;;;;;;;2.93;1.10;;;;;;;;;;5075138;28;20396;-76
2021/10/05 17:01:32;;;;;;;4.40;0.80;;;;;;;;;;5075035;28;20458;-77
2021/10/05 17:03:58;;;;;;;9.13;2.23;;;;;;;;;;5074531;28;20935;-76
2021/10/05 17:06:24;;;;;;;2.53;1.27;;;;;;;;;;5075072;28;20415;-75
2021/10/05 17:08:50;;;;;;;3.87;1.30;;;;;;;;;;5074949;28;20434;-74
2021/10/05 17:11:16;;;;;;;2.13;1.00;;;;;;;;;;5074637;28;20473;-75
2021/10/05 17:13:42;;;;;;;5.87;1.30;;;;;;;;;;5074351;28;20419;-76
2021/10/05 17:16:08;;;;;;;2.10;1.00;;;;;;;;;;5074578;28;20961;-75
2021/10/05 17:18:34;;;;;;;5.43;1.43;;;;;;;;;;5073687;28;20445;-76
2021/10/05 17:21:00;;;;;;;3.20;1.27;;;;;;;;;;5074522;28;20411;-75
2021/10/05 17:23:26;;;;;;;3.93;1.00;;;;;;;;;;5073617;28;20746;-76
2021/10/05 17:25:52;;;;;;;3.93;1.20;;;;;;;;;;5073616;28;20480;-75
2021/10/05 17:28:19;;;;;;;2.90;1.30;;;;;;;;;;5073933;28;20407;-75
2021/10/05 17:30:47;;;;;;;4.40;1.50;;;;;;;;;;5074051;28;20418;-77
2021/10/05 17:33:13;;;;;;;1.87;0.90;;;;;;;;;;5074234;28;20410;-77
2021/10/05 17:35:41;;;;;;;2.90;1.00;;;;;;;;;;5073676;28;20454;-76
2021/10/05 17:38:07;;;;;;;2.87;1.00;;;;;;;;;;5074179;28;20911;-78
2021/10/05 17:40:33;;;;;;;3.33;1.03;;;;;;;;;;5074436;28;20410;-77
2021/10/05 17:42:59;;;;;;;2.00;1.20;;;;;;;;;;5073520;28;20418;-75
2021/10/05 17:45:25;;;;;;;1.63;1.20;;;;;;;;;;5073131;28;20927;-76
2021/10/05 17:47:51;;;;;;;4.73;1.83;;;;;;;;;;5073503;28;20442;-76
2021/10/05 17:50:18;;;;;;;3.90;1.37;;;;;;;;;;5073808;28;20427;-78
2021/10/05 17:52:45;;;;;;;2.10;1.30;;;;;;;;;;5073890;28;20396;-74
2021/10/05 17:55:11;;;;;;;2.50;1.23;;;;;;;;;;5073465;28;20557;-74
2021/10/05 17:57:38;;;;;;;4.20;1.00;;;;;;;;;;5072587;28;20415;-76
2021/10/05 18:00:05;;;;;;;2.00;1.00;;;;;;;;;;5072650;28;20419;-79
2021/10/05 18:02:31;;;;;;;4.93;1.07;;;;;;;;;;5074006;28;20506;-77
2021/10/05 18:04:59;;;;;;;5.23;1.10;;;;;;;;;;5073494;28;20546;-78
2021/10/05 18:07:26;;;;;;;4.03;1.20;;;;;;;;;;5073575;28;20450;-78
2021/10/05 18:09:52;;;;;;;1.90;1.00;;;;;;;;;;5073404;28;20914;-77
2021/10/05 18:12:18;;;;;;;5.27;1.10;;;;;;;;;;5073555;28;20399;-77
2021/10/05 18:14:45;;;;;;;4.20;1.57;;;;;;;;;;5073061;28;20508;-77
2021/10/05 18:17:11;;;;;;;3.10;1.10;;;;;;;;;;5073623;28;20411;-78
2021/10/05 18:19:37;;;;;;;4.27;1.03;;;;;;;;;;5072327;28;20938;-76
2021/10/05 18:22:03;;;;;;;3.60;1.20;;;;;;;;;;5073443;28;20414;-78
2021/10/05 18:24:29;;;;;;;5.30;1.20;;;;;;;;;;5073126;28;20492;-77
2021/10/05 18:26:55;;;;;;;7.63;1.40;;;;;;;;;;5073444;28;20215;-79
2021/10/05 18:29:21;;;;;;;2.13;1.70;;;;;;;;;;5073067;28;20404;-76
2021/10/05 18:31:48;;;;;;;4.07;1.20;;;;;;;;;;5071876;28;20923;-78
2021/10/05 18:34:14;;;;;;;6.43;2.50;;;;;;;;;;5072824;28;20472;-78
2021/10/05 18:36:41;;;;;;;5.80;1.70;;;;;;;;;;5073203;28;21047;-77
2021/10/05 18:39:07;;;;;;;6.00;1.63;;;;;;;;;;5073326;28;20403;-77
2021/10/05 18:41:33;;;;;;;4.07;1.30;;;;;;;;;;5073241;28;20411;-77
2021/10/05 18:43:59;;;;;;;4.63;1.50;;;;;;;;;;5072741;28;20228;-77
2021/10/05 18:46:25;;;;;;;8.57;1.45;;;;;;;;;;5073335;28;20188;-77
2021/10/05 18:48:52;;;;;;;3.10;1.20;;;;;;;;;;5073374;28;20183;-75
2021/10/05 18:51:18;;;;;;;3.00;1.50;;;;;;;;;;5073415;28;20541;-76
2021/10/05 18:53:44;;;;;;;2.90;1.33;;;;;;;;;;5072962;28;20633;-76
2021/10/05 18:56:10;;;;;;;2.03;1.33;;;;;;;;;;5072975;28;20502;-77
2021/10/05 18:58:37;;;;;;;5.17;1.60;;;;;;;;;;5073131;28;20399;-78
2021/10/05 19:01:04;;;;;;;3.45;1.60;;;;;;;;;;5073103;28;20438;-77
2021/10/05 19:03:31;;;;;;;3.30;1.30;;;;;;;;;;5073231;28;20177;-80
2021/10/05 19:05:58;;;;;;;6.40;1.73;;;;;;;;;;5073391;28;20443;-76
2021/10/05 19:08:24;;;;;;;3.70;2.33;;;;;;;;;;5072757;28;20184;-78
2021/10/05 19:10:50;;;;;;;1.98;1.27;;;;;;;;;;5073080;28;20199;-77
2021/10/05 19:13:16;;;;;;;4.63;1.97;;;;;;;;;;5073150;28;20181;-80
2021/10/05 19:15:43;;;;;;;3.10;1.30;;;;;;;;;;5072480;28;20447;-78
2021/10/05 19:18:09;;;;;;;5.00;1.83;;;;;;;;;;5072933;28;20741;-78
2021/10/05 19:20:35;;;;;;;5.32;2.45;;;;;;;;;;5072889;28;20181;-78
2021/10/05 19:23:01;;;;;;;3.88;1.70;;;;;;;;;;5071511;28;20184;-77
2021/10/05 19:25:29;;;;;;;4.10;1.50;;;;;;;;;;5072512;28;20291;-77
2021/10/05 19:27:55;;;;;;;5.82;1.45;;;;;;;;;;5072647;28;20169;-78
2021/10/05 19:30:22;;;;;;;5.67;1.70;;;;;;;;;;5072657;28;20176;-77
2021/10/05 19:32:49;;;;;;;1.30;1.00;;;;;;;;;;5072865;28;20409;-77
2021/10/05 19:35:15;;;;;;;5.43;1.33;;;;;;;;;;5072269;28;20266;-76
2021/10/05 19:37:42;;;;;;;7.85;1.10;;;;;;;;;;5072665;28;20179;-78
2021/10/05 19:40:08;;;;;;;6.25;1.30;;;;;;;;;;5072691;28;20199;-77
2021/10/05 19:42:34;;;;;;;4.18;3.22;;;;;;;;;;5074578;28;20177;-77
2021/10/05 19:45:00;;;;;;;3.07;1.50;;;;;;;;;;5076023;28;20204;-76
2021/10/05 19:47:26;;;;;;;3.23;1.33;;;;;;;;;;5076265;28;20458;-76
2021/10/05 19:49:52;;;;;;;3.70;0.90;;;;;;;;;;5076209;28;20454;-76
2021/10/05 19:52:18;;;;;;;1.43;1.00;;;;;;;;;;5076184;28;20426;-77
2021/10/05 19:54:44;;;;;;;5.50;1.20;;;;;;;;;;5074371;28;20442;-75
2021/10/05 19:57:10;;;;;;;3.80;1.10;;;;;;;;;;5076280;28;20434;-77
2021/10/05 19:59:36;;;;;;;4.63;1.50;;;;;;;;;;5076064;28;20944;-77
2021/10/05 20:02:02;;;;;;;7.13;1.20;;;;;;;;;;5076237;28;20400;-78
2021/10/05 20:04:28;;;;;;;4.73;1.23;;;;;;;;;;5075476;28;20430;-78
2021/10/05 20:06:54;;;;;;;5.37;1.47;;;;;;;;;;5075867;28;20427;-76
2021/10/05 20:09:20;;;;;;;3.80;1.13;;;;;;;;;;5075905;28;20446;-76
2021/10/05 20:11:46;;;;;;;6.87;1.30;;;;;;;;;;5075747;28;20410;-76
2021/10/05 20:14:12;;;;;;;3.47;1.27;;;;;;;;;;5075401;28;20435;-76
2021/10/05 20:16:38;;;;;;;6.00;1.40;;;;;;;;;;5075742;28;20462;-75
2021/10/05 20:19:04;;;;;;;7.17;1.40;;;;;;;;;;5075464;28;20502;-76
2021/10/05 20:21:30;;;;;;;2.60;0.97;;;;;;;;;;5075227;28;20408;-78
2021/10/05 20:23:56;;;;;;;2.27;1.20;;;;;;;;;;5075029;28;20427;-76
2021/10/05 20:26:22;;;;;;;3.23;1.20;;;;;;;;;;5075580;28;20407;-78
2021/10/05 20:28:48;;;;;;;1.87;1.37;;;;;;;;;;5075384;28;20420;-77
2021/10/05 20:31:14;;;;;;;2.87;1.30;;;;;;;;;;5074486;28;20419;-77
2021/10/05 20:33:40;;;;;;;4.50;1.25;;;;;;;;;;5074743;28;20424;-76
2021/10/05 20:36:06;;;;;;;5.60;1.40;;;;;;;;;;5075432;28;20561;-77
2021/10/05 20:38:32;;;;;;;4.00;1.30;;;;;;;;;;5075394;28;20477;-75
2021/10/05 20:40:58;;;;;;;3.30;1.00;;;;;;;;;;5075158;28;20792;-75
2021/10/05 20:43:24;;;;;;;2.93;1.20;;;;;;;;;;5075210;28;20414;-74
2021/10/05 20:45:50;;;;;;;1.87;1.30;;;;;;;;;;5074930;28;21022;-78
2021/10/05 20:48:16;;;;;;;2.67;1.13;;;;;;;;;;5074226;28;20414;-76
2021/10/05 20:50:42;;;;;;;4.67;1.40;;;;;;;;;;5075438;28;20451;-78
2021/10/05 20:53:08;;;;;;;4.50;1.00;;;;;;;;;;5075142;28;20419;-78
2021/10/05 20:55:34;;;;;;;4.50;1.83;;;;;;;;;;5074440;28;21009;-76
2021/10/05 20:58:00;;;;;;;4.27;1.30;;;;;;;;;;5075114;28;20181;-76
2021/10/05 21:00:26;;;;;;;1.77;1.13;;;;;;;;;;5075099;28;20827;-76
2021/10/05 21:02:52;;;;;;;5.10;1.10;;;;;;;;;;5075246;28;20461;-78
2021/10/05 21:05:19;;;;;;;5.47;1.43;;;;;;;;;;5074336;28;20439;-75
2021/10/05 21:07:45;;;;;;;2.40;1.17;;;;;;;;;;5074767;28;20411;-75
2021/10/05 21:10:11;;;;;;;3.30;1.47;;;;;;;;;;5074987;28;20418;-77
2021/10/05 21:12:37;;;;;;;2.03;0.93;;;;;;;;;;5073593;28;20518;-74
2021/10/05 21:15:03;;;;;;;4.50;1.43;;;;;;;;;;5074341;28;20609;-77
2021/10/05 21:17:29;;;;;;;4.30;1.30;;;;;;;;;;5074756;28;20556;-77
2021/10/05 21:19:55;;;;;;;3.63;1.20;;;;;;;;;;5073489;28;20177;-77
2021/10/05 21:22:21;;;;;;;2.53;1.23;;;;;;;;;;5074731;28;20410;-77
2021/10/05 21:24:47;;;;;;;3.17;1.25;;;;;;;;;;5074192;28;20544;-76
2021/10/05 21:27:13;;;;;;;3.30;1.30;;;;;;;;;;5074316;28;20594;-77
2021/10/05 21:29:39;;;;;;;2.85;1.15;;;;;;;;;;5074371;28;20407;-76
2021/10/05 21:32:06;;;;;;;8.77;2.10;;;;;;;;;;5073116;28;20715;-75
2021/10/05 21:34:32;;;;;;;9.10;1.40;;;;;;;;;;5073823;28;20796;-78
2021/10/05 21:36:58;;;;;;;3.13;1.48;;;;;;;;;;5074164;28;20243;-76
2021/10/05 21:39:24;;;;;;;6.70;1.35;;;;;;;;;;5073987;28;20256;-75
2021/10/05 21:41:50;;;;;;;4.00;1.57;;;;;;;;;;5074086;28;20200;-76
2021/10/05 21:44:16;;;;;;;3.17;1.40;;;;;;;;;;5073570;28;20431;-75
2021/10/05 21:46:42;;;;;;;6.57;1.50;;;;;;;;;;5074042;28;20455;-76
2021/10/05 21:49:08;;;;;;;4.75;0.90;;;;;;;;;;5073984;28;20547;-75
2021/10/05 21:51:34;;;;;;;3.50;1.05;;;;;;;;;;5073830;28;20180;-75
2021/10/05 21:54:00;;;;;;;3.77;1.30;;;;;;;;;;5072334;28;20211;-75
2021/10/05 21:56:28;;;;;;;6.13;1.47;;;;;;;;;;5073681;28;20827;-77
2021/10/05 21:58:54;;;;;;;5.85;2.15;;;;;;;;;;5073994;28;20395;-78
2021/10/05 22:01:20;;;;;;;4.60;1.57;;;;;;;;;;5073974;28;20173;-75
2021/10/05 22:03:46;;;;;;;3.73;1.23;;;;;;;;;;5073441;28;20446;-75
2021/10/05 22:06:12;;;;;;;1.63;1.17;;;;;;;;;;5073281;28;20439;-74
2021/10/05 22:08:38;;;;;;;6.23;1.30;;;;;;;;;;5073670;28;20418;-76
2021/10/05 22:11:04;;;;;;;5.23;1.37;;;;;;;;;;5073547;28;20961;-75
2021/10/05 22:13:30;;;;;;;1.77;1.10;;;;;;;;;;5055651;28;20422;-76
2021/10/05 22:15:56;;;;;;;2.50;1.13;;;;;;;;;;5073242;28;20488;-75
2021/10/05 22:18:22;;;;;;;2.40;1.10;;;;;;;;;;5072185;28;20422;-75
2021/10/05 22:20:48;;;;;;;3.30;1.07;;;;;;;;;;5073466;28;20494;-77
2021/10/05 22:23:14;;;;;;;2.60;0.97;;;;;;;;;;5073347;28;20509;-76
2021/10/05 22:25:40;;;;;;;8.83;1.30;;;;;;;;;;5073021;28;20800;-77
2021/10/05 22:28:07;;;;;;;3.27;1.40;;;;;;;;;;5073245;28;20464;-75
2021/10/05 22:30:33;;;;;;;3.50;1.20;;;;;;;;;;5073362;28;20418;-75
2021/10/05 22:32:59;;;;;;;3.33;1.13;;;;;;;;;;5073249;28;20410;-78
2021/10/05 22:35:26;;;;;;;2.93;1.27;;;;;;;;;;5072665;28;20245;-76
2021/10/05 22:37:53;;;;;;;5.80;1.42;;;;;;;;;;5073123;28;20482;-75
2021/10/05 22:40:20;;;;;;;1.77;0.97;;;;;;;;;;5073243;28;20529;-77
2021/10/05 22:42:46;;;;;;;3.23;1.30;;;;;;;;;;5073211;28;20406;-76
2021/10/05 22:45:14;;;;;;;3.97;1.40;;;;;;;;;;5072777;28;20434;-76
2021/10/05 22:47:41;;;;;;;2.88;1.00;;;;;;;;;;5073013;28;20183;-77
2021/10/05 22:50:07;;;;;;;4.60;1.10;;;;;;;;;;5073095;28;20223;-75
2021/10/05 22:52:33;;;;;;;1.90;1.15;;;;;;;;;;5073192;28;20410;-76
2021/10/05 22:54:59;;;;;;;2.40;1.40;;;;;;;;;;5072773;28;20216;-76
2021/10/05 22:57:26;;;;;;;1.95;1.05;;;;;;;;;;5073350;28;20173;-75
2021/10/05 22:59:52;;;;;;;5.82;1.30;;;;;;;;;;5072941;28;20532;-76
2021/10/05 23:02:18;;;;;;;2.67;1.08;;;;;;;;;;5072936;28;20637;-77
2021/10/05 23:04:43;;;;;;;5.50;1.10;;;;;;;;;;5072528;28;20188;-76
2021/10/05 23:07:09;;;;;;;2.27;1.37;;;;;;;;;;5072903;28;20456;-77
2021/10/05 23:09:35;;;;;;;4.40;1.20;;;;;;;;;;5072840;28;20404;-78
2021/10/05 23:12:01;;;;;;;3.77;1.10;;;;;;;;;;5072735;28;20399;-76
2021/10/05 23:14:27;;;;;;;3.33;1.20;;;;;;;;;;5072455;28;20427;-76
2021/10/05 23:16:53;;;;;;;2.23;1.00;;;;;;;;;;5074187;28;20901;-77
2021/10/05 23:19:21;;;;;;;1.87;0.90;;;;;;;;;;5077073;28;20415;-76
2021/10/05 23:21:47;;;;;;;2.97;1.07;;;;;;;;;;5076828;28;20403;-75
2021/10/05 23:24:13;;;;;;;2.20;1.00;;;;;;;;;;5076244;28;20453;-77
2021/10/05 23:26:39;;;;;;;4.53;1.47;;;;;;;;;;5076940;28;20413;-75
2021/10/05 23:29:05;;;;;;;6.27;1.23;;;;;;;;;;5076757;28;20929;-75
2021/10/05 23:31:31;;;;;;;4.10;1.50;;;;;;;;;;5076824;28;20830;-76
2021/10/05 23:33:57;;;;;;;1.73;0.77;;;;;;;;;;5076110;28;20197;-77
2021/10/05 23:36:23;;;;;;;2.03;0.80;;;;;;;;;;5076177;28;20469;-76
2021/10/05 23:38:49;;;;;;;3.60;1.17;;;;;;;;;;5076500;28;20490;-75
2021/10/05 23:41:15;;;;;;;2.50;0.80;;;;;;;;;;5076430;28;20429;-75
2021/10/05 23:43:41;;;;;;;5.17;1.50;;;;;;;;;;5074845;28;20407;-74
2021/10/05 23:46:07;;;;;;;9.13;1.50;;;;;;;;;;5076254;28;20410;-76
2021/10/05 23:48:33;;;;;;;3.20;1.00;;;;;;;;;;5076178;28;20433;-76
2021/10/05 23:50:59;;;;;;;5.10;1.30;;;;;;;;;;5076286;28;20446;-74
2021/10/05 23:53:25;;;;;;;1.47;0.80;;;;;;;;;;5076232;28;20803;-76
2021/10/05 23:55:51;;;;;;;2.83;0.90;;;;;;;;;;5075652;28;20496;-74
2021/10/05 23:58:18;;;;;;;4.80;0.80;;;;;;;;;;5074745;28;20423;-76
